sensor_id;sensor_type;location;lat;lon;timestamp;pressure;altitude;pressure_sealevel;temperature;humidity
5877;BME280;2964;42.144;24.730;2023-03-25T00:00:21;143723.56;;;8.57;90.86
5877;BME280;2964;42.144;24.730;2023-03-25T00:02:50;143714.78;;;8.53;91.23
5877;BME280;2964;42.144;24.730;2023-03-25T00:05:18;143694.75;;;8.45;91.20
5877;BME280;2964;42.144;24.730;2023-03-25T00:07:48;143693.47;;;8.44;91.88
5877;BME280;2964;42.144;24.730;2023-03-25T00:10:15;143738.59;;;8.63;90.03
5877;BME280;2964;42.144;24.730;2023-03-25T00:12:42;143702.25;;;8.48;91.08
5877;BME280;2964;42.144;24.730;2023-03-25T00:15:10;143713.56;;;8.53;92.01
5877;BME280;2964;42.144;24.730;2023-03-25T00:17:39;143707.25;;;8.50;92.32
5877;BME280;2964;42.144;24.730;2023-03-25T00:20:08;143647.03;;;8.25;93.31
5877;BME280;2964;42.144;24.730;2023-03-25T00:22:36;143738.59;;;8.63;92.58
5877;BME280;2964;42.144;24.730;2023-03-25T00:25:06;143785.03;;;8.82;90.93
5877;BME280;2964;42.144;24.730;2023-03-25T00:27:33;143732.34;;;8.60;92.60
5877;BME280;2964;42.144;24.730;2023-03-25T00:30:01;143630.72;;;8.19;92.83
5877;BME280;2964;42.144;24.730;2023-03-25T00:32:27;143694.75;;;8.45;93.71
5877;BME280;2964;42.144;24.730;2023-03-25T00:34:56;143670.84;;;8.35;94.81
5877;BME280;2964;42.144;24.730;2023-03-25T00:37:24;143751.16;;;8.68;93.43
5877;BME280;2964;42.144;24.730;2023-03-25T00:39:51;143801.31;;;8.88;91.62
5877;BME280;2964;42.144;24.730;2023-03-25T00:42:18;143712.31;;;8.52;94.36
5877;BME280;2964;42.144;24.730;2023-03-25T00:44:50;143679.63;;;8.39;95.38
5877;BME280;2964;42.144;24.730;2023-03-25T00:47:17;143664.59;;;8.32;95.40
5877;BME280;2964;42.144;24.730;2023-03-25T00:49:46;143667.06;;;8.34;95.30
5877;BME280;2964;42.144;24.730;2023-03-25T00:52:14;143664.59;;;8.32;95.54
5877;BME280;2964;42.144;24.730;2023-03-25T00:54:43;143692.22;;;8.44;95.22
5877;BME280;2964;42.144;24.730;2023-03-25T00:57:10;143738.59;;;8.63;95.33
5877;BME280;2964;42.144;24.730;2023-03-25T00:59:36;143699.75;;;8.47;95.65
5877;BME280;2964;42.144;24.730;2023-03-25T01:02:03;143687.22;;;8.42;96.91
5877;BME280;2964;42.144;24.730;2023-03-25T01:04:31;143674.63;;;8.37;96.62
5877;BME280;2964;42.144;24.730;2023-03-25T01:06:58;143652.06;;;8.27;97.30
5877;BME280;2964;42.144;24.730;2023-03-25T01:09:27;143632.00;;;8.19;98.06
5877;BME280;2964;42.144;24.730;2023-03-25T01:11:54;143628.25;;;8.18;98.63
5877;BME280;2964;42.144;24.730;2023-03-25T01:14:21;143644.50;;;8.24;97.87
5877;BME280;2964;42.144;24.730;2023-03-25T01:16:51;143675.84;;;8.37;96.67
5877;BME280;2964;42.144;24.730;2023-03-25T01:19:18;143663.34;;;8.32;96.49
5877;BME280;2964;42.144;24.730;2023-03-25T01:21:45;143654.56;;;8.28;97.60
5877;BME280;2964;42.144;24.730;2023-03-25T01:24:13;143599.38;;;8.06;98.63
5877;BME280;2964;42.144;24.730;2023-03-25T01:26:41;143644.50;;;8.24;98.32
5877;BME280;2964;42.144;24.730;2023-03-25T01:29:10;143659.59;;;8.30;97.85
5877;BME280;2964;42.144;24.730;2023-03-25T01:31:37;143616.94;;;8.13;97.77
5877;BME280;2964;42.144;24.730;2023-03-25T01:34:04;143589.38;;;8.02;99.43
5877;BME280;2964;42.144;24.730;2023-03-25T01:36:31;143570.56;;;7.94;99.72
5877;BME280;2964;42.144;24.730;2023-03-25T01:39:00;143559.31;;;7.89;100.00
5877;BME280;2964;42.144;24.730;2023-03-25T01:41:30;143613.22;;;8.11;99.53
5877;BME280;2964;42.144;24.730;2023-03-25T01:44:04;143630.72;;;8.19;98.01
5877;BME280;2964;42.144;24.730;2023-03-25T01:46:31;143569.34;;;7.93;99.96
5877;BME280;2964;42.144;24.730;2023-03-25T01:49:01;143560.56;;;7.90;100.00
5877;BME280;2964;42.144;24.730;2023-03-25T01:51:29;143634.50;;;8.20;97.41
5877;BME280;2964;42.144;24.730;2023-03-25T01:53:58;143669.59;;;8.35;96.92
5877;BME280;2964;42.144;24.730;2023-03-25T01:56:27;143633.25;;;8.20;97.71
5877;BME280;2964;42.144;24.730;2023-03-25T01:58:57;143702.25;;;8.48;96.80
5877;BME280;2964;42.144;24.730;2023-03-25T02:01:28;143627.00;;;8.17;97.21
5877;BME280;2964;42.144;24.730;2023-03-25T02:03:56;143589.38;;;8.02;98.25
5877;BME280;2964;42.144;24.730;2023-03-25T02:06:30;143586.88;;;8.01;98.80
5877;BME280;2964;42.144;24.730;2023-03-25T02:09:01;143569.34;;;7.93;98.32
5877;BME280;2964;42.144;24.730;2023-03-25T02:11:29;143548.00;;;7.85;99.17
5877;BME280;2964;42.144;24.730;2023-03-25T02:13:57;143611.94;;;8.11;97.38
5877;BME280;2964;42.144;24.730;2023-03-25T02:16:29;143563.03;;;7.91;99.28
5877;BME280;2964;42.144;24.730;2023-03-25T02:19:15;143667.06;;;8.34;97.09
5877;BME280;2964;42.144;24.730;2023-03-25T02:22:06;143672.13;;;8.36;96.12
5877;BME280;2964;42.144;24.730;2023-03-25T02:28:02;143624.47;;;8.16;97.26
5877;BME280;2964;42.144;24.730;2023-03-25T02:31:05;143566.81;;;7.92;97.26
5877;BME280;2964;42.144;24.730;2023-03-25T02:33:49;143535.47;;;7.80;97.28
5877;BME280;2964;42.144;24.730;2023-03-25T02:39:18;143531.69;;;7.78;97.22
5877;BME280;2964;42.144;24.730;2023-03-25T02:41:51;143619.47;;;8.14;96.39
5877;BME280;2964;42.144;24.730;2023-03-25T02:44:27;143574.34;;;7.96;96.21
5877;BME280;2964;42.144;24.730;2023-03-25T02:46:57;143605.69;;;8.08;95.83
5877;BME280;2964;42.144;24.730;2023-03-25T02:49:29;143586.88;;;8.01;95.85
5877;BME280;2964;42.144;24.730;2023-03-25T02:51:59;143591.88;;;8.03;94.43
5877;BME280;2964;42.144;24.730;2023-03-25T02:54:30;143580.59;;;7.98;95.28
5877;BME280;2964;42.144;24.730;2023-03-25T02:57:02;143654.56;;;8.28;93.67
5877;BME280;2964;42.144;24.730;2023-03-25T02:59:30;143574.34;;;7.96;95.40
5877;BME280;2964;42.144;24.730;2023-03-25T03:01:59;143484.13;;;7.59;96.29
5877;BME280;2964;42.144;24.730;2023-03-25T03:04:27;143462.81;;;7.50;97.10
5877;BME280;2964;42.144;24.730;2023-03-25T03:06:54;143421.47;;;7.33;98.98
5877;BME280;2964;42.144;24.730;2023-03-25T03:09:34;143395.16;;;7.22;100.00
5877;BME280;2964;42.144;24.730;2023-03-25T03:12:19;143358.81;;;7.07;100.00
5877;BME280;2964;42.144;24.730;2023-03-25T03:15:00;143368.84;;;7.11;100.00
5877;BME280;2964;42.144;24.730;2023-03-25T03:17:37;143406.44;;;7.27;99.48
5877;BME280;2964;42.144;24.730;2023-03-25T03:20:15;143368.84;;;7.11;100.00
5877;BME280;2964;42.144;24.730;2023-03-25T03:22:47;143356.31;;;7.06;100.00
5877;BME280;2964;42.144;24.730;2023-03-25T03:25:22;143481.59;;;7.58;98.36
5877;BME280;2964;42.144;24.730;2023-03-25T03:27:55;143511.66;;;7.70;98.10
5877;BME280;2964;42.144;24.730;2023-03-25T03:30:26;143574.34;;;7.96;95.40
5877;BME280;2964;42.144;24.730;2023-03-25T03:33:01;143429.00;;;7.36;97.38
5877;BME280;2964;42.144;24.730;2023-03-25T03:35:36;143396.38;;;7.23;98.59
5877;BME280;2964;42.144;24.730;2023-03-25T03:38:08;143506.66;;;7.68;97.52
5877;BME280;2964;42.144;24.730;2023-03-25T03:40:40;143421.47;;;7.33;98.04
5877;BME280;2964;42.144;24.730;2023-03-25T03:43:12;143479.09;;;7.57;98.75
5877;BME280;2964;42.144;24.730;2023-03-25T03:45:43;143396.38;;;7.23;98.81
5877;BME280;2964;42.144;24.730;2023-03-25T03:48:18;143441.47;;;7.41;98.67
5877;BME280;2964;42.144;24.730;2023-03-25T03:50:51;143510.44;;;7.69;97.15
5877;BME280;2964;42.144;24.730;2023-03-25T03:53:21;143402.69;;;7.25;97.55
5877;BME280;2964;42.144;24.730;2023-03-25T03:55:53;143484.13;;;7.59;96.63
5877;BME280;2964;42.144;24.730;2023-03-25T03:58:28;143426.47;;;7.35;98.25
5877;BME280;2964;42.144;24.730;2023-03-25T04:01:00;143383.91;;;7.18;99.48
5877;BME280;2964;42.144;24.730;2023-03-25T04:03:31;143367.59;;;7.11;100.00
5877;BME280;2964;42.144;24.730;2023-03-25T04:06:09;143391.38;;;7.21;100.00
5877;BME280;2964;42.144;24.730;2023-03-25T04:08:43;143451.53;;;7.45;98.36
5877;BME280;2964;42.144;24.730;2023-03-25T04:11:21;143371.38;;;7.12;98.95
5877;BME280;2964;42.144;24.730;2023-03-25T04:13:51;143338.81;;;6.99;99.88
5877;BME280;2964;42.144;24.730;2023-03-25T04:16:19;143343.81;;;7.01;100.00
5877;BME280;2964;42.144;24.730;2023-03-25T04:18:47;143366.34;;;7.10;100.00
5877;BME280;2964;42.144;24.730;2023-03-25T04:21:18;143327.50;;;6.94;100.00
5877;BME280;2964;42.144;24.730;2023-03-25T04:23:44;143388.91;;;7.20;100.00
5877;BME280;2964;42.144;24.730;2023-03-25T04:26:11;143346.28;;;7.02;100.00
5877;BME280;2964;42.144;24.730;2023-03-25T04:28:39;143327.50;;;6.94;100.00
5877;BME280;2964;42.144;24.730;2023-03-25T04:31:11;143331.28;;;6.96;100.00
5877;BME280;2964;42.144;24.730;2023-03-25T04:33:39;143373.84;;;7.13;100.00
5877;BME280;2964;42.144;24.730;2023-03-25T04:36:07;143348.81;;;7.03;100.00
5877;BME280;2964;42.144;24.730;2023-03-25T04:38:35;143340.06;;;7.00;100.00
5877;BME280;2964;42.144;24.730;2023-03-25T04:41:02;143391.38;;;7.21;100.00
5877;BME280;2964;42.144;24.730;2023-03-25T04:43:31;143355.06;;;7.06;100.00
5877;BME280;2964;42.144;24.730;2023-03-25T04:45:59;143363.84;;;7.09;100.00
5877;BME280;2964;42.144;24.730;2023-03-25T04:48:28;143403.91;;;7.26;100.00
5877;BME280;2964;42.144;24.730;2023-03-25T04:50:55;143386.38;;;7.19;100.00
5877;BME280;2964;42.144;24.730;2023-03-25T04:53:23;143377.59;;;7.15;100.00
5877;BME280;2964;42.144;24.730;2023-03-25T04:55:50;143378.84;;;7.15;100.00
5877;BME280;2964;42.144;24.730;2023-03-25T04:58:16;143392.66;;;7.21;100.00
5877;BME280;2964;42.144;24.730;2023-03-25T05:00:44;143471.56;;;7.53;98.26
5877;BME280;2964;42.144;24.730;2023-03-25T05:03:12;143531.69;;;7.78;97.37
5877;BME280;2964;42.144;24.730;2023-03-25T05:05:40;143467.81;;;7.52;96.25
5877;BME280;2964;42.144;24.730;2023-03-25T05:08:08;143512.91;;;7.70;97.11
5877;BME280;2964;42.144;24.730;2023-03-25T05:10:36;143482.88;;;7.58;97.25
5877;BME280;2964;42.144;24.730;2023-03-25T05:13:05;143539.25;;;7.81;96.64
5877;BME280;2964;42.144;24.730;2023-03-25T05:15:34;143586.88;;;8.01;96.81
5877;BME280;2964;42.144;24.730;2023-03-25T05:18:04;143684.63;;;8.41;93.40
5877;BME280;2964;42.144;24.730;2023-03-25T05:20:35;143679.63;;;8.39;92.51
5877;BME280;2964;42.144;24.730;2023-03-25T05:23:02;143625.72;;;8.17;93.59
5877;BME280;2964;42.144;24.730;2023-03-25T05:25:29;143623.22;;;8.16;94.29
5877;BME280;2964;42.144;24.730;2023-03-25T05:27:58;143697.22;;;8.46;91.40
5877;BME280;2964;42.144;24.730;2023-03-25T05:30:26;143747.38;;;8.66;88.93
5877;BME280;2964;42.144;24.730;2023-03-25T05:32:56;143734.88;;;8.61;89.27
5877;BME280;2964;42.144;24.730;2023-03-25T05:35:24;143844.00;;;9.06;87.38
5877;BME280;2964;42.144;24.730;2023-03-25T05:37:52;144028.47;;;9.81;85.36
5877;BME280;2964;42.144;24.730;2023-03-25T05:40:20;144482.00;;;11.67;78.77
5877;BME280;2964;42.144;24.730;2023-03-25T05:42:46;144709.66;;;12.60;71.20
5877;BME280;2964;42.144;24.730;2023-03-25T05:45:14;144861.94;;;13.22;69.92
5877;BME280;2964;42.144;24.730;2023-03-25T05:47:41;144845.63;;;13.15;66.98
5877;BME280;2964;42.144;24.730;2023-03-25T05:50:08;144838.03;;;13.12;69.11
5877;BME280;2964;42.144;24.730;2023-03-25T05:52:35;144890.97;;;13.34;67.04
5877;BME280;2964;42.144;24.730;2023-03-25T05:55:09;144727.28;;;12.67;69.40
5877;BME280;2964;42.144;24.730;2023-03-25T05:57:37;144830.47;;;13.09;68.07
5877;BME280;2964;42.144;24.730;2023-03-25T06:00:05;144738.63;;;12.71;69.89
5877;BME280;2964;42.144;24.730;2023-03-25T06:02:33;145094.97;;;14.17;65.13
5877;BME280;2964;42.144;24.730;2023-03-25T06:05:03;145074.78;;;14.08;67.12
5877;BME280;2964;42.144;24.730;2023-03-25T06:07:30;145120.13;;;14.27;66.33
5877;BME280;2964;42.144;24.730;2023-03-25T06:09:57;145220.97;;;14.68;63.73
5877;BME280;2964;42.144;24.730;2023-03-25T06:12:25;145750.75;;;16.84;55.62
5877;BME280;2964;42.144;24.730;2023-03-25T06:14:54;146104.38;;;18.27;51.98
5877;BME280;2964;42.144;24.730;2023-03-25T06:17:21;145717.91;;;16.70;54.96
5877;BME280;2964;42.144;24.730;2023-03-25T06:19:48;145740.59;;;16.79;57.07
5877;BME280;2964;42.144;24.730;2023-03-25T06:22:15;145923.75;;;17.54;55.46
5877;BME280;2964;42.144;24.730;2023-03-25T06:24:42;145831.53;;;17.16;55.60
5877;BME280;2964;42.144;24.730;2023-03-25T06:27:12;145773.47;;;16.93;56.77
5877;BME280;2964;42.144;24.730;2023-03-25T06:29:41;145788.66;;;16.99;57.70
5877;BME280;2964;42.144;24.730;2023-03-25T06:32:08;145831.53;;;17.16;54.31
5877;BME280;2964;42.144;24.730;2023-03-25T06:34:35;146009.63;;;17.89;54.42
5877;BME280;2964;42.144;24.730;2023-03-25T06:37:03;145649.75;;;16.43;56.38
5877;BME280;2964;42.144;24.730;2023-03-25T06:39:31;145730.53;;;16.75;57.57
5877;BME280;2964;42.144;24.730;2023-03-25T06:41:58;145827.75;;;17.15;57.96
5877;BME280;2964;42.144;24.730;2023-03-25T06:44:26;145802.53;;;17.05;57.96
5877;BME280;2964;42.144;24.730;2023-03-25T06:46:54;145463.03;;;15.67;60.44
5877;BME280;2964;42.144;24.730;2023-03-25T06:49:21;145821.47;;;17.12;56.44
5877;BME280;2964;42.144;24.730;2023-03-25T06:51:48;145869.47;;;17.32;55.33
5877;BME280;2964;42.144;24.730;2023-03-25T06:54:15;145644.72;;;16.40;58.98
5877;BME280;2964;42.144;24.730;2023-03-25T06:56:43;145623.25;;;16.32;56.90
5877;BME280;2964;42.144;24.730;2023-03-25T06:59:09;145509.72;;;15.86;59.60
5877;BME280;2964;42.144;24.730;2023-03-25T07:01:36;145675.00;;;16.53;57.71
5877;BME280;2964;42.144;24.730;2023-03-25T07:04:04;145741.84;;;16.80;58.20
5877;BME280;2964;42.144;24.730;2023-03-25T07:06:31;145733.03;;;16.76;58.13
5877;BME280;2964;42.144;24.730;2023-03-25T07:08:57;145821.47;;;17.12;58.45
5877;BME280;2964;42.144;24.730;2023-03-25T07:11:26;145705.25;;;16.65;55.75
5877;BME280;2964;42.144;24.730;2023-03-25T07:13:54;145979.31;;;17.77;54.89
5877;BME280;2964;42.144;24.730;2023-03-25T07:16:21;145859.31;;;17.28;53.43
5877;BME280;2964;42.144;24.730;2023-03-25T07:18:48;146069.06;;;18.13;51.98
5877;BME280;2964;42.144;24.730;2023-03-25T07:21:17;146291.53;;;19.03;49.92
5877;BME280;2964;42.144;24.730;2023-03-25T07:23:44;146647.00;;;20.48;46.75
5877;BME280;2964;42.144;24.730;2023-03-25T07:26:11;146911.66;;;21.55;44.71
5877;BME280;2964;42.144;24.730;2023-03-25T07:28:38;147217.03;;;22.79;41.18
5877;BME280;2964;42.144;24.730;2023-03-25T07:31:06;147496.09;;;23.92;39.08
5877;BME280;2964;42.144;24.730;2023-03-25T07:33:33;147374.28;;;23.42;38.32
5877;BME280;2964;42.144;24.730;2023-03-25T07:36:01;147205.63;;;22.74;40.28
5877;BME280;2964;42.144;24.730;2023-03-25T07:38:29;147478.31;;;23.84;38.01
5877;BME280;2964;42.144;24.730;2023-03-25T07:40:55;146812.84;;;21.15;41.30
5877;BME280;2964;42.144;24.730;2023-03-25T07:43:22;146895.19;;;21.48;42.18
5877;BME280;2964;42.144;24.730;2023-03-25T07:45:49;146991.44;;;21.87;42.07
5877;BME280;2964;42.144;24.730;2023-03-25T07:48:15;146626.72;;;20.39;44.93
5877;BME280;2964;42.144;24.730;2023-03-25T07:50:42;146529.31;;;20.00;44.58
5877;BME280;2964;42.144;24.730;2023-03-25T07:53:10;146677.31;;;20.60;44.64
5877;BME280;2964;42.144;24.730;2023-03-25T07:55:38;146660.91;;;20.53;45.42
5877;BME280;2964;42.144;24.730;2023-03-25T07:58:04;146909.09;;;21.54;43.67
5877;BME280;2964;42.144;24.730;2023-03-25T08:00:31;146740.66;;;20.86;42.66
5877;BME280;2964;42.144;24.730;2023-03-25T08:02:58;147109.31;;;22.35;41.54
5877;BME280;2964;42.144;24.730;2023-03-25T08:05:24;147081.38;;;22.24;40.71
5877;BME280;2964;42.144;24.730;2023-03-25T08:07:52;147105.50;;;22.33;41.82
5877;BME280;2964;42.144;24.730;2023-03-25T08:10:20;147096.69;;;22.30;40.90
5877;BME280;2964;42.144;24.730;2023-03-25T08:12:50;146397.72;;;19.46;45.80
5877;BME280;2964;42.144;24.730;2023-03-25T08:15:18;146378.75;;;19.39;45.84
5877;BME280;2964;42.144;24.730;2023-03-25T08:17:45;146462.25;;;19.73;45.38
5877;BME280;2964;42.144;24.730;2023-03-25T08:20:12;146822.94;;;21.19;43.67
5877;BME280;2964;42.144;24.730;2023-03-25T08:22:39;146968.63;;;21.78;42.82
5877;BME280;2964;42.144;24.730;2023-03-25T08:25:06;147051.00;;;22.11;41.48
5877;BME280;2964;42.144;24.730;2023-03-25T08:27:33;147195.47;;;22.70;40.58
5877;BME280;2964;42.144;24.730;2023-03-25T08:30:01;147124.53;;;22.41;40.81
5877;BME280;2964;42.144;24.730;2023-03-25T08:32:29;146896.47;;;21.49;41.93
5877;BME280;2964;42.144;24.730;2023-03-25T08:34:56;146902.78;;;21.51;42.31
5877;BME280;2964;42.144;24.730;2023-03-25T08:37:23;147063.66;;;22.16;42.16
5877;BME280;2964;42.144;24.730;2023-03-25T08:39:50;147269.00;;;23.00;39.58
5877;BME280;2964;42.144;24.730;2023-03-25T08:42:20;146822.94;;;21.19;42.00
5877;BME280;2964;42.144;24.730;2023-03-25T08:44:46;146929.41;;;21.62;43.76
5877;BME280;2964;42.144;24.730;2023-03-25T08:47:15;147367.94;;;23.40;38.92
5877;BME280;2964;42.144;24.730;2023-03-25T08:49:42;147375.56;;;23.43;38.46
5877;BME280;2964;42.144;24.730;2023-03-25T08:52:08;147463.06;;;23.78;36.99
5877;BME280;2964;42.144;24.730;2023-03-25T08:54:35;146919.28;;;21.58;40.87
5877;BME280;2964;42.144;24.730;2023-03-25T08:57:02;147146.06;;;22.50;40.87
5877;BME280;2964;42.144;24.730;2023-03-25T08:59:28;146795.09;;;21.08;41.64
5877;BME280;2964;42.144;24.730;2023-03-25T09:01:55;147404.72;;;23.55;39.55
5877;BME280;2964;42.144;24.730;2023-03-25T09:04:23;147628.03;;;24.45;36.68
5877;BME280;2964;42.144;24.730;2023-03-25T09:06:50;147161.28;;;22.56;38.18
5877;BME280;2964;42.144;24.730;2023-03-25T09:09:16;147906.13;;;25.57;34.96
5877;BME280;2964;42.144;24.730;2023-03-25T09:11:44;148387.88;;;27.52;30.87
5877;BME280;2964;42.144;24.730;2023-03-25T09:14:10;148470.53;;;27.85;29.47
5877;BME280;2964;42.144;24.730;2023-03-25T09:16:37;148529.03;;;28.09;28.34
5877;BME280;2964;42.144;24.730;2023-03-25T09:19:04;148609.19;;;28.41;28.12
5877;BME280;2964;42.144;24.730;2023-03-25T09:21:32;148643.63;;;28.55;27.54
5877;BME280;2964;42.144;24.730;2023-03-25T09:23:58;148615.53;;;28.44;27.21
5877;BME280;2964;42.144;24.730;2023-03-25T09:26:25;148849.81;;;29.38;26.30
5877;BME280;2964;42.144;24.730;2023-03-25T09:28:52;148895.63;;;29.57;26.26
5877;BME280;2964;42.144;24.730;2023-03-25T09:31:20;148541.75;;;28.14;27.00
5877;BME280;2964;42.144;24.730;2023-03-25T09:33:47;148694.50;;;28.76;25.99
5877;BME280;2964;42.144;24.730;2023-03-25T09:36:13;149146.56;;;30.58;24.46
5877;BME280;2964;42.144;24.730;2023-03-25T09:38:41;148800.16;;;29.18;25.36
5877;BME280;2964;42.144;24.730;2023-03-25T09:41:29;148758.13;;;29.01;25.59
5877;BME280;2964;42.144;24.730;2023-03-25T09:44:04;148741.56;;;28.95;26.79
5877;BME280;2964;42.144;24.730;2023-03-25T09:46:35;148467.97;;;27.84;26.85
5877;BME280;2964;42.144;24.730;2023-03-25T09:49:03;148732.66;;;28.91;26.22
5877;BME280;2964;42.144;24.730;2023-03-25T09:51:33;148927.47;;;29.70;24.93
5877;BME280;2964;42.144;24.730;2023-03-25T09:54:12;148792.50;;;29.15;26.52
5877;BME280;2964;42.144;24.730;2023-03-25T09:56:43;148624.44;;;28.47;25.83
5877;BME280;2964;42.144;24.730;2023-03-25T09:59:12;148806.50;;;29.21;25.37
5877;BME280;2964;42.144;24.730;2023-03-25T10:01:45;148928.72;;;29.70;26.47
5877;BME280;2964;42.144;24.730;2023-03-25T10:07:26;148833.25;;;29.32;26.71
5877;BME280;2964;42.144;24.730;2023-03-25T10:10:04;148557.06;;;28.20;27.01
5877;BME280;2964;42.144;24.730;2023-03-25T10:12:41;148293.72;;;27.14;29.85
5877;BME280;2964;42.144;24.730;2023-03-25T10:15:19;147953.09;;;25.76;31.23
5877;BME280;2964;42.144;24.730;2023-03-25T10:17:58;147677.56;;;24.65;34.00
5877;BME280;2964;42.144;24.730;2023-03-25T10:20:39;147342.63;;;23.29;36.92
5877;BME280;2964;42.144;24.730;2023-03-25T10:23:12;147149.88;;;22.51;37.51
5877;BME280;2964;42.144;24.730;2023-03-25T10:25:46;146972.44;;;21.79;37.96
5877;BME280;2964;42.144;24.730;2023-03-25T10:28:21;147081.38;;;22.24;37.26
5877;BME280;2964;42.144;24.730;2023-03-25T10:30:51;147094.13;;;22.29;38.02
5877;BME280;2964;42.144;24.730;2023-03-25T10:33:27;147023.09;;;22.00;40.23
5877;BME280;2964;42.144;24.730;2023-03-25T10:35:55;146985.13;;;21.85;39.83
5877;BME280;2964;42.144;24.730;2023-03-25T10:38:24;147020.59;;;21.99;39.86
5877;BME280;2964;42.144;24.730;2023-03-25T10:41:02;146891.38;;;21.47;41.03
5877;BME280;2964;42.144;24.730;2023-03-25T10:43:32;146896.47;;;21.49;40.11
5877;BME280;2964;42.144;24.730;2023-03-25T10:46:05;146924.34;;;21.60;39.47
5877;BME280;2964;42.144;24.730;2023-03-25T10:48:37;146901.53;;;21.51;40.48
5877;BME280;2964;42.144;24.730;2023-03-25T10:51:08;146919.28;;;21.58;39.69
5877;BME280;2964;42.144;24.730;2023-03-25T10:53:37;146954.69;;;21.72;38.46
5877;BME280;2964;42.144;24.730;2023-03-25T10:56:08;146957.25;;;21.73;38.23
5877;BME280;2964;42.144;24.730;2023-03-25T10:58:39;146975.00;;;21.81;39.45
5877;BME280;2964;42.144;24.730;2023-03-25T11:01:10;147051.00;;;22.11;39.71
5877;BME280;2964;42.144;24.730;2023-03-25T11:03:38;147007.91;;;21.94;37.29
5877;BME280;2964;42.144;24.730;2023-03-25T11:06:08;147035.78;;;22.05;38.28
5877;BME280;2964;42.144;24.730;2023-03-25T11:08:55;147086.50;;;22.26;38.77
5877;BME280;2964;42.144;24.730;2023-03-25T11:11:30;147105.50;;;22.33;38.02
5877;BME280;2964;42.144;24.730;2023-03-25T11:13:57;147119.47;;;22.39;38.37
5877;BME280;2964;42.144;24.730;2023-03-25T11:16:24;147151.13;;;22.52;38.48
5877;BME280;2964;42.144;24.730;2023-03-25T11:18:52;147190.41;;;22.68;36.69
5877;BME280;2964;42.144;24.730;2023-03-25T11:21:19;147165.09;;;22.58;36.20
5877;BME280;2964;42.144;24.730;2023-03-25T11:23:47;147186.59;;;22.66;36.70
5877;BME280;2964;42.144;24.730;2023-03-25T11:26:18;147035.78;;;22.05;38.92
5877;BME280;2964;42.144;24.730;2023-03-25T11:28:48;147076.31;;;22.22;37.98
5877;BME280;2964;42.144;24.730;2023-03-25T11:31:18;147137.19;;;22.46;38.80
5877;BME280;2964;42.144;24.730;2023-03-25T11:33:46;147154.94;;;22.53;38.33
5877;BME280;2964;42.144;24.730;2023-03-25T11:36:28;147076.31;;;22.22;37.07
5877;BME280;2964;42.144;24.730;2023-03-25T11:38:57;147103.00;;;22.32;38.15
5877;BME280;2964;42.144;24.730;2023-03-25T11:41:27;147078.88;;;22.23;37.39
5877;BME280;2964;42.144;24.730;2023-03-25T11:43:57;147094.13;;;22.29;37.44
5877;BME280;2964;42.144;24.730;2023-03-25T11:46:24;146986.38;;;21.85;38.17
5877;BME280;2964;42.144;24.730;2023-03-25T11:48:51;146961.06;;;21.75;39.43
5877;BME280;2964;42.144;24.730;2023-03-25T11:51:20;146957.25;;;21.73;38.48
5877;BME280;2964;42.144;24.730;2023-03-25T11:53:52;147037.03;;;22.06;38.67
5877;BME280;2964;42.144;24.730;2023-03-25T11:56:22;147019.34;;;21.98;38.17
5877;BME280;2964;42.144;24.730;2023-03-25T11:58:50;147028.16;;;22.02;39.50
5877;BME280;2964;42.144;24.730;2023-03-25T12:01:24;147040.84;;;22.07;38.83
5877;BME280;2964;42.144;24.730;2023-03-25T12:04:05;146996.53;;;21.89;38.17
5877;BME280;2964;42.144;24.730;2023-03-25T12:06:32;147073.81;;;22.21;38.70
5877;BME280;2964;42.144;24.730;2023-03-25T12:08:59;147049.72;;;22.11;38.85
5877;BME280;2964;42.144;24.730;2023-03-25T12:11:28;147081.38;;;22.24;37.99
5877;BME280;2964;42.144;24.730;2023-03-25T12:14:11;147068.72;;;22.18;38.09
5877;BME280;2964;42.144;24.730;2023-03-25T12:16:49;147066.19;;;22.17;38.87
5877;BME280;2964;42.144;24.730;2023-03-25T12:19:28;147038.34;;;22.06;38.38
5877;BME280;2964;42.144;24.730;2023-03-25T12:22:06;147052.25;;;22.12;38.48
5877;BME280;2964;42.144;24.730;2023-03-25T12:24:51;147038.34;;;22.06;37.67
5877;BME280;2964;42.144;24.730;2023-03-25T12:27:32;147052.25;;;22.12;38.91
5877;BME280;2964;42.144;24.730;2023-03-25T12:30:08;147114.38;;;22.37;37.23
5877;BME280;2964;42.144;24.730;2023-03-25T12:32:45;147129.59;;;22.43;36.83
5877;BME280;2964;42.144;24.730;2023-03-25T12:35:21;147132.13;;;22.44;36.88
5877;BME280;2964;42.144;24.730;2023-03-25T12:38:03;147051.00;;;22.11;37.19
5877;BME280;2964;42.144;24.730;2023-03-25T12:40:43;147034.53;;;22.05;37.02
5877;BME280;2964;42.144;24.730;2023-03-25T12:43:16;147078.88;;;22.23;37.51
5877;BME280;2964;42.144;24.730;2023-03-25T12:45:54;147170.16;;;22.60;37.23
5877;BME280;2964;42.144;24.730;2023-03-25T12:48:35;147176.47;;;22.62;36.28
5877;BME280;2964;42.144;24.730;2023-03-25T12:51:12;147233.53;;;22.85;37.19
5877;BME280;2964;42.144;24.730;2023-03-25T12:53:50;147222.13;;;22.81;37.00
5877;BME280;2964;42.144;24.730;2023-03-25T12:56:35;147205.63;;;22.74;37.32
5877;BME280;2964;42.144;24.730;2023-03-25T12:59:22;147236.06;;;22.86;36.96
5877;BME280;2964;42.144;24.730;2023-03-25T13:02:05;147260.13;;;22.96;37.22
5877;BME280;2964;42.144;24.730;2023-03-25T13:04:57;147234.78;;;22.86;38.28
5877;BME280;2964;42.144;24.730;2023-03-25T13:07:32;147242.41;;;22.89;37.91
5877;BME280;2964;42.144;24.730;2023-03-25T13:10:06;147241.13;;;22.88;37.51
5877;BME280;2964;42.144;24.730;2023-03-25T13:12:40;147271.56;;;23.01;38.21
5877;BME280;2964;42.144;24.730;2023-03-25T13:15:15;147282.97;;;23.05;38.28
5877;BME280;2964;42.144;24.730;2023-03-25T13:17:46;147321.06;;;23.21;37.08
5877;BME280;2964;42.144;24.730;2023-03-25T13:20:15;147329.94;;;23.24;37.01
5877;BME280;2964;42.144;24.730;2023-03-25T13:22:46;147289.34;;;23.08;37.21
5877;BME280;2964;42.144;24.730;2023-03-25T13:25:21;147211.97;;;22.77;38.43
5877;BME280;2964;42.144;24.730;2023-03-25T13:27:50;147223.38;;;22.81;38.24
5877;BME280;2964;42.144;24.730;2023-03-25T13:30:23;147208.16;;;22.75;37.87